Terminal Aerodrome Forecast
Issued by NWS Nashville, TN

Home | Current Version | Previous Version | Text Only | Print | Product List | Glossary On
Versions: 1 2 3 4 5 6 7 8 9 10 11 12 13 14 15
000
FTUS44 KOHX 301120
TAFCSV
TAF
KCSV 301120Z 3012/3112 VRB03KT P6SM OVC100
      TEMPO 3017/3021 5SM -SHRA BR OVC035
     FM310700 00000KT 5SM BR BKN050
      TEMPO 3109/3112 2SM BR=

USA.gov is the U.S. government's official web portal to all federal, state and local government web resources and services.